Kingfisher, Oklahoma
Current Conditions -  °F | °C
As of 4:55 PM on Monday 24 Nov 2014 (Local Time) from KRCE Reporting Station
Clear Clear  
Wind Chill: 50°   Ceiling: Unl
Heat Index: 50°   Visibility: NA
Dew Point: 21°   Wind: 8mph
Humidity: 32%   Direction: 320°NW
Pressure: 30.02"   Gusts: NA
Location:  35.86°N, 97.93°W
Report Text: KRCE 242255Z AUTO 32007KT CLR 10/M06 A3002 RMK AO2
Loading
Personal Weather Stations






























Interactive Weather Map New forecast layout! Learn more

10-Day Weather Forecast

Advertisements
Track Severe Weather on mobile